sensor_id;sensor_type;location;lat;lon;timestamp;temperature;humidity
72380;SHT30;60354;47.798;12.472;2023-12-20T00:02:14;4.29;77.74
72380;SHT30;60354;47.798;12.472;2023-12-20T00:04:40;4.27;78.66
72380;SHT30;60354;47.798;12.472;2023-12-20T00:07:05;4.22;78.02
72380;SHT30;60354;47.798;12.472;2023-12-20T00:09:31;4.15;78.77
72380;SHT30;60354;47.798;12.472;2023-12-20T00:11:56;4.07;77.81
72380;SHT30;60354;47.798;12.472;2023-12-20T00:14:22;4.05;79.26
72380;SHT30;60354;47.798;12.472;2023-12-20T00:16:47;4.07;77.98
72380;SHT30;60354;47.798;12.472;2023-12-20T00:19:13;3.94;77.62
72380;SHT30;60354;47.798;12.472;2023-12-20T00:21:38;3.93;78.02
72380;SHT30;60354;47.798;12.472;2023-12-20T00:24:04;3.84;78.80
72380;SHT30;60354;47.798;12.472;2023-12-20T00:26:30;3.87;77.47
72380;SHT30;60354;47.798;12.472;2023-12-20T00:28:55;3.87;77.12
72380;SHT30;60354;47.798;12.472;2023-12-20T00:31:21;3.67;79.41
72380;SHT30;60354;47.798;12.472;2023-12-20T00:33:46;3.74;78.13
72380;SHT30;60354;47.798;12.472;2023-12-20T00:36:12;3.77;79.01
72380;SHT30;60354;47.798;12.472;2023-12-20T00:38:37;3.71;80.44
72380;SHT30;60354;47.798;12.472;2023-12-20T00:41:03;3.69;79.46
72380;SHT30;60354;47.798;12.472;2023-12-20T00:43:28;3.66;76.88
72380;SHT30;60354;47.798;12.472;2023-12-20T00:45:54;3.63;77.00
72380;SHT30;60354;47.798;12.472;2023-12-20T00:48:21;3.62;77.29
72380;SHT30;60354;47.798;12.472;2023-12-20T00:50:46;3.69;78.32
72380;SHT30;60354;47.798;12.472;2023-12-20T00:53:12;3.67;76.60
72380;SHT30;60354;47.798;12.472;2023-12-20T00:55:37;3.63;77.47
72380;SHT30;60354;47.798;12.472;2023-12-20T00:58:03;3.43;76.78
72380;SHT30;60354;47.798;12.472;2023-12-20T01:00:28;3.42;77.04
72380;SHT30;60354;47.798;12.472;2023-12-20T01:02:54;3.49;77.25
72380;SHT30;60354;47.798;12.472;2023-12-20T01:05:19;3.46;77.02
72380;SHT30;60354;47.798;12.472;2023-12-20T01:07:48;3.47;77.16
72380;SHT30;60354;47.798;12.472;2023-12-20T01:10:14;3.50;77.09
72380;SHT30;60354;47.798;12.472;2023-12-20T01:12:40;3.56;76.89
72380;SHT30;60354;47.798;12.472;2023-12-20T01:15:05;3.62;76.25
72380;SHT30;60354;47.798;12.472;2023-12-20T01:17:31;3.66;78.08
72380;SHT30;60354;47.798;12.472;2023-12-20T01:19:56;3.70;76.00
72380;SHT30;60354;47.798;12.472;2023-12-20T01:22:23;3.74;75.70
72380;SHT30;60354;47.798;12.472;2023-12-20T01:24:48;3.76;75.53
72380;SHT30;60354;47.798;12.472;2023-12-20T01:27:14;3.70;75.67
72380;SHT30;60354;47.798;12.472;2023-12-20T01:29:39;3.67;75.95
72380;SHT30;60354;47.798;12.472;2023-12-20T01:32:05;3.63;76.30
72380;SHT30;60354;47.798;12.472;2023-12-20T01:34:31;3.60;76.42
72380;SHT30;60354;47.798;12.472;2023-12-20T01:36:56;3.55;76.91
72380;SHT30;60354;47.798;12.472;2023-12-20T01:39:22;3.52;76.77
72380;SHT30;60354;47.798;12.472;2023-12-20T01:41:47;3.50;76.62
72380;SHT30;60354;47.798;12.472;2023-12-20T01:44:13;3.50;76.81
72380;SHT30;60354;47.798;12.472;2023-12-20T01:46:38;3.47;76.78
72380;SHT30;60354;47.798;12.472;2023-12-20T01:49:04;3.55;77.49
72380;SHT30;60354;47.798;12.472;2023-12-20T01:51:30;3.55;78.55
72380;SHT30;60354;47.798;12.472;2023-12-20T01:53:57;3.56;78.75
72380;SHT30;60354;47.798;12.472;2023-12-20T01:56:23;3.42;78.52
72380;SHT30;60354;47.798;12.472;2023-12-20T01:58:49;3.35;79.29
72380;SHT30;60354;47.798;12.472;2023-12-20T02:01:15;3.30;78.06
72380;SHT30;60354;47.798;12.472;2023-12-20T02:03:41;3.33;77.72
72380;SHT30;60354;47.798;12.472;2023-12-20T02:06:08;3.38;78.49
72380;SHT30;60354;47.798;12.472;2023-12-20T02:08:35;3.44;79.43
72380;SHT30;60354;47.798;12.472;2023-12-20T02:11:01;3.46;78.37
72380;SHT30;60354;47.798;12.472;2023-12-20T02:13:26;3.47;77.87
72380;SHT30;60354;47.798;12.472;2023-12-20T02:15:52;3.49;77.76
72380;SHT30;60354;47.798;12.472;2023-12-20T02:18:18;3.47;78.21
72380;SHT30;60354;47.798;12.472;2023-12-20T02:20:44;3.59;77.79
72380;SHT30;60354;47.798;12.472;2023-12-20T02:23:09;3.56;77.80
72380;SHT30;60354;47.798;12.472;2023-12-20T02:25:35;3.49;78.90
72380;SHT30;60354;47.798;12.472;2023-12-20T02:28:01;3.47;79.14
72380;SHT30;60354;47.798;12.472;2023-12-20T02:30:27;3.44;79.08
72380;SHT30;60354;47.798;12.472;2023-12-20T02:32:53;3.40;78.42
72380;SHT30;60354;47.798;12.472;2023-12-20T02:35:19;3.16;79.13
72380;SHT30;60354;47.798;12.472;2023-12-20T02:37:44;3.16;78.14
72380;SHT30;60354;47.798;12.472;2023-12-20T02:40:10;3.22;79.77
72380;SHT30;60354;47.798;12.472;2023-12-20T02:42:36;3.22;78.32
72380;SHT30;60354;47.798;12.472;2023-12-20T02:45:01;3.22;77.53
72380;SHT30;60354;47.798;12.472;2023-12-20T02:47:27;3.40;76.42
72380;SHT30;60354;47.798;12.472;2023-12-20T02:49:52;3.36;78.48
72380;SHT30;60354;47.798;12.472;2023-12-20T02:52:18;3.39;77.45
72380;SHT30;60354;47.798;12.472;2023-12-20T02:54:44;3.35;77.47
72380;SHT30;60354;47.798;12.472;2023-12-20T02:57:09;3.25;78.45
72380;SHT30;60354;47.798;12.472;2023-12-20T02:59:35;3.23;79.20
72380;SHT30;60354;47.798;12.472;2023-12-20T03:02:00;3.29;78.78
72380;SHT30;60354;47.798;12.472;2023-12-20T03:04:26;3.29;78.22
72380;SHT30;60354;47.798;12.472;2023-12-20T03:06:51;3.30;78.04
72380;SHT30;60354;47.798;12.472;2023-12-20T03:09:16;3.35;78.71
72380;SHT30;60354;47.798;12.472;2023-12-20T03:11:42;3.39;77.70
72380;SHT30;60354;47.798;12.472;2023-12-20T03:14:07;3.42;77.20
72380;SHT30;60354;47.798;12.472;2023-12-20T03:16:33;3.46;77.55
72380;SHT30;60354;47.798;12.472;2023-12-20T03:18:58;3.52;78.03
72380;SHT30;60354;47.798;12.472;2023-12-20T03:21:24;3.44;77.47
72380;SHT30;60354;47.798;12.472;2023-12-20T03:23:49;3.53;78.58
72380;SHT30;60354;47.798;12.472;2023-12-20T03:26:15;3.36;77.82
72380;SHT30;60354;47.798;12.472;2023-12-20T03:28:40;3.33;77.72
72380;SHT30;60354;47.798;12.472;2023-12-20T03:31:06;3.46;78.09
72380;SHT30;60354;47.798;12.472;2023-12-20T03:33:31;3.40;77.27
72380;SHT30;60354;47.798;12.472;2023-12-20T03:35:57;3.42;77.09
72380;SHT30;60354;47.798;12.472;2023-12-20T03:38:22;3.46;77.11
72380;SHT30;60354;47.798;12.472;2023-12-20T03:40:49;3.50;76.85
72380;SHT30;60354;47.798;12.472;2023-12-20T03:43:15;3.57;78.55
72380;SHT30;60354;47.798;12.472;2023-12-20T03:45:42;3.60;77.16
72380;SHT30;60354;47.798;12.472;2023-12-20T03:48:08;3.56;76.87
72380;SHT30;60354;47.798;12.472;2023-12-20T03:50:34;3.60;76.91
72380;SHT30;60354;47.798;12.472;2023-12-20T03:53:00;3.66;76.70
72380;SHT30;60354;47.798;12.472;2023-12-20T03:55:25;3.73;76.27
72380;SHT30;60354;47.798;12.472;2023-12-20T03:57:51;3.76;75.78
72380;SHT30;60354;47.798;12.472;2023-12-20T04:00:16;3.74;76.57
72380;SHT30;60354;47.798;12.472;2023-12-20T04:02:42;3.77;75.97
72380;SHT30;60354;47.798;12.472;2023-12-20T04:05:09;3.84;74.90
72380;SHT30;60354;47.798;12.472;2023-12-20T04:07:35;3.88;76.98
72380;SHT30;60354;47.798;12.472;2023-12-20T04:10:01;3.90;75.85
72380;SHT30;60354;47.798;12.472;2023-12-20T04:12:28;3.90;75.14
72380;SHT30;60354;47.798;12.472;2023-12-20T04:14:53;3.91;76.30
72380;SHT30;60354;47.798;12.472;2023-12-20T04:17:20;3.93;76.62
72380;SHT30;60354;47.798;12.472;2023-12-20T04:19:46;3.95;75.52
72380;SHT30;60354;47.798;12.472;2023-12-20T04:22:11;3.98;75.19
72380;SHT30;60354;47.798;12.472;2023-12-20T04:24:36;4.02;74.60
72380;SHT30;60354;47.798;12.472;2023-12-20T04:27:02;4.21;73.07
72380;SHT30;60354;47.798;12.472;2023-12-20T04:29:28;4.22;74.74
72380;SHT30;60354;47.798;12.472;2023-12-20T04:31:53;4.27;73.70
72380;SHT30;60354;47.798;12.472;2023-12-20T04:34:19;4.32;73.67
72380;SHT30;60354;47.798;12.472;2023-12-20T04:36:45;4.38;73.48
72380;SHT30;60354;47.798;12.472;2023-12-20T04:39:12;4.39;74.08
72380;SHT30;60354;47.798;12.472;2023-12-20T04:41:38;4.44;75.59
72380;SHT30;60354;47.798;12.472;2023-12-20T04:44:04;4.44;75.38
72380;SHT30;60354;47.798;12.472;2023-12-20T04:46:29;4.52;75.23
72380;SHT30;60354;47.798;12.472;2023-12-20T04:48:55;4.56;74.72
72380;SHT30;60354;47.798;12.472;2023-12-20T04:51:20;4.70;74.20
72380;SHT30;60354;47.798;12.472;2023-12-20T04:53:46;5.01;72.96
72380;SHT30;60354;47.798;12.472;2023-12-20T04:56:11;5.89;72.96
72380;SHT30;60354;47.798;12.472;2023-12-20T04:58:37;6.19;72.28
72380;SHT30;60354;47.798;12.472;2023-12-20T05:01:03;6.51;74.37
72380;SHT30;60354;47.798;12.472;2023-12-20T05:03:30;6.57;75.80
72380;SHT30;60354;47.798;12.472;2023-12-20T05:05:55;6.54;76.65
72380;SHT30;60354;47.798;12.472;2023-12-20T05:08:20;6.45;82.90
72380;SHT30;60354;47.798;12.472;2023-12-20T05:10:46;6.24;84.87
72380;SHT30;60354;47.798;12.472;2023-12-20T05:13:11;6.07;86.64
72380;SHT30;60354;47.798;12.472;2023-12-20T05:15:37;5.88;87.99
72380;SHT30;60354;47.798;12.472;2023-12-20T05:18:03;5.88;87.92
72380;SHT30;60354;47.798;12.472;2023-12-20T05:20:28;5.88;87.90
72380;SHT30;60354;47.798;12.472;2023-12-20T05:22:54;5.89;87.12
72380;SHT30;60354;47.798;12.472;2023-12-20T05:25:19;5.86;86.90
72380;SHT30;60354;47.798;12.472;2023-12-20T05:27:45;5.86;87.52
72380;SHT30;60354;47.798;12.472;2023-12-20T05:30:11;5.79;88.65
72380;SHT30;60354;47.798;12.472;2023-12-20T05:32:36;5.69;89.52
72380;SHT30;60354;47.798;12.472;2023-12-20T05:35:02;5.61;90.59
72380;SHT30;60354;47.798;12.472;2023-12-20T05:37:28;5.62;90.52
72380;SHT30;60354;47.798;12.472;2023-12-20T05:39:54;5.63;90.70
72380;SHT30;60354;47.798;12.472;2023-12-20T05:42:19;5.66;90.49
72380;SHT30;60354;47.798;12.472;2023-12-20T05:44:45;5.78;90.17
72380;SHT30;60354;47.798;12.472;2023-12-20T05:47:10;5.88;89.76
72380;SHT30;60354;47.798;12.472;2023-12-20T05:49:35;5.99;89.05
72380;SHT30;60354;47.798;12.472;2023-12-20T05:52:01;5.92;88.16
72380;SHT30;60354;47.798;12.472;2023-12-20T05:54:26;5.85;88.00
72380;SHT30;60354;47.798;12.472;2023-12-20T05:56:52;5.89;87.99
72380;SHT30;60354;47.798;12.472;2023-12-20T05:59:17;5.99;87.97
72380;SHT30;60354;47.798;12.472;2023-12-20T06:01:43;6.12;86.64
72380;SHT30;60354;47.798;12.472;2023-12-20T06:04:09;6.23;85.96
72380;SHT30;60354;47.798;12.472;2023-12-20T06:06:34;6.26;85.91
72380;SHT30;60354;47.798;12.472;2023-12-20T06:09:00;6.23;85.76
72380;SHT30;60354;47.798;12.472;2023-12-20T06:11:25;6.40;84.60
72380;SHT30;60354;47.798;12.472;2023-12-20T06:13:51;6.48;84.10
72380;SHT30;60354;47.798;12.472;2023-12-20T06:16:18;6.44;84.13
72380;SHT30;60354;47.798;12.472;2023-12-20T06:18:44;6.44;84.36
72380;SHT30;60354;47.798;12.472;2023-12-20T06:21:09;6.48;84.24
72380;SHT30;60354;47.798;12.472;2023-12-20T06:23:38;6.40;85.00
72380;SHT30;60354;47.798;12.472;2023-12-20T06:26:03;6.23;85.82
72380;SHT30;60354;47.798;12.472;2023-12-20T06:28:29;6.12;86.82
72380;SHT30;60354;47.798;12.472;2023-12-20T06:30:54;6.06;87.42
72380;SHT30;60354;47.798;12.472;2023-12-20T06:33:20;5.93;88.21
72380;SHT30;60354;47.798;12.472;2023-12-20T06:35:47;5.89;88.27
72380;SHT30;60354;47.798;12.472;2023-12-20T06:38:12;5.85;88.72
72380;SHT30;60354;47.798;12.472;2023-12-20T06:40:38;5.83;88.57
72380;SHT30;60354;47.798;12.472;2023-12-20T06:43:03;5.86;89.00
72380;SHT30;60354;47.798;12.472;2023-12-20T06:45:29;5.76;89.65
72380;SHT30;60354;47.798;12.472;2023-12-20T06:47:55;5.73;90.45
72380;SHT30;60354;47.798;12.472;2023-12-20T06:50:20;5.65;91.09
72380;SHT30;60354;47.798;12.472;2023-12-20T06:52:46;5.65;91.85
72380;SHT30;60354;47.798;12.472;2023-12-20T06:55:11;5.65;90.91
72380;SHT30;60354;47.798;12.472;2023-12-20T06:57:37;5.63;91.35
72380;SHT30;60354;47.798;12.472;2023-12-20T07:00:03;5.65;91.19
72380;SHT30;60354;47.798;12.472;2023-12-20T07:02:29;5.62;91.45
72380;SHT30;60354;47.798;12.472;2023-12-20T07:04:55;5.71;89.69
72380;SHT30;60354;47.798;12.472;2023-12-20T07:07:21;5.76;90.18
72380;SHT30;60354;47.798;12.472;2023-12-20T07:09:48;5.69;90.67
72380;SHT30;60354;47.798;12.472;2023-12-20T07:12:14;5.62;91.65
72380;SHT30;60354;47.798;12.472;2023-12-20T07:14:39;5.59;91.72
72380;SHT30;60354;47.798;12.472;2023-12-20T07:17:05;5.54;90.96
72380;SHT30;60354;47.798;12.472;2023-12-20T07:19:32;5.48;91.89
72380;SHT30;60354;47.798;12.472;2023-12-20T07:21:57;5.52;90.78
72380;SHT30;60354;47.798;12.472;2023-12-20T07:24:23;5.42;91.19
72380;SHT30;60354;47.798;12.472;2023-12-20T07:26:48;5.38;91.62
72380;SHT30;60354;47.798;12.472;2023-12-20T07:29:14;5.31;92.31
72380;SHT30;60354;47.798;12.472;2023-12-20T07:31:39;5.28;91.92
72380;SHT30;60354;47.798;12.472;2023-12-20T07:34:05;5.30;91.31
72380;SHT30;60354;47.798;12.472;2023-12-20T07:36:30;5.26;91.39
72380;SHT30;60354;47.798;12.472;2023-12-20T07:38:56;5.31;90.89
72380;SHT30;60354;47.798;12.472;2023-12-20T07:41:21;5.26;90.91
72380;SHT30;60354;47.798;12.472;2023-12-20T07:43:48;5.34;90.36
72380;SHT30;60354;47.798;12.472;2023-12-20T07:46:14;5.34;91.13
72380;SHT30;60354;47.798;12.472;2023-12-20T07:48:40;5.24;91.24
72380;SHT30;60354;47.798;12.472;2023-12-20T07:51:06;5.23;90.75
72380;SHT30;60354;47.798;12.472;2023-12-20T07:53:33;5.24;91.40
72380;SHT30;60354;47.798;12.472;2023-12-20T07:56:00;5.26;91.35
72380;SHT30;60354;47.798;12.472;2023-12-20T07:58:25;5.17;91.65
72380;SHT30;60354;47.798;12.472;2023-12-20T08:00:51;5.24;90.88
72380;SHT30;60354;47.798;12.472;2023-12-20T08:03:16;5.19;91.77
72380;SHT30;60354;47.798;12.472;2023-12-20T08:05:42;5.17;91.99
72380;SHT30;60354;47.798;12.472;2023-12-20T08:08:07;5.19;91.04
72380;SHT30;60354;47.798;12.472;2023-12-20T08:10:33;5.24;91.14
72380;SHT30;60354;47.798;12.472;2023-12-20T08:12:58;5.32;89.95
72380;SHT30;60354;47.798;12.472;2023-12-20T08:15:24;5.20;90.48
72380;SHT30;60354;47.798;12.472;2023-12-20T08:17:49;5.21;90.81
72380;SHT30;60354;47.798;12.472;2023-12-20T08:20:18;5.21;91.86
72380;SHT30;60354;47.798;12.472;2023-12-20T08:22:43;5.19;91.84
72380;SHT30;60354;47.798;12.472;2023-12-20T08:25:09;5.11;91.98
72380;SHT30;60354;47.798;12.472;2023-12-20T08:27:40;5.11;91.67
72380;SHT30;60354;47.798;12.472;2023-12-20T08:30:08;5.13;91.44
72380;SHT30;60354;47.798;12.472;2023-12-20T08:32:34;5.10;92.01
72380;SHT30;60354;47.798;12.472;2023-12-20T08:35:00;5.11;91.53
72380;SHT30;60354;47.798;12.472;2023-12-20T08:37:25;5.09;92.20
72380;SHT30;60354;47.798;12.472;2023-12-20T08:39:51;5.11;92.09
72380;SHT30;60354;47.798;12.472;2023-12-20T08:42:16;5.09;92.15
72380;SHT30;60354;47.798;12.472;2023-12-20T08:44:42;5.11;92.26
72380;SHT30;60354;47.798;12.472;2023-12-20T08:47:07;5.14;91.87
72380;SHT30;60354;47.798;12.472;2023-12-20T08:49:33;5.17;91.02
72380;SHT30;60354;47.798;12.472;2023-12-20T08:51:58;5.26;90.69
72380;SHT30;60354;47.798;12.472;2023-12-20T08:54:24;5.26;90.57
72380;SHT30;60354;47.798;12.472;2023-12-20T08:56:49;5.31;90.96
72380;SHT30;60354;47.798;12.472;2023-12-20T08:59:15;5.28;90.41
72380;SHT30;60354;47.798;12.472;2023-12-20T09:01:40;5.28;90.34
72380;SHT30;60354;47.798;12.472;2023-12-20T09:04:06;5.30;90.23
72380;SHT30;60354;47.798;12.472;2023-12-20T09:06:31;5.31;90.86
72380;SHT30;60354;47.798;12.472;2023-12-20T09:08:57;5.28;91.34
72380;SHT30;60354;47.798;12.472;2023-12-20T09:11:22;5.30;91.68
72380;SHT30;60354;47.798;12.472;2023-12-20T09:13:48;5.26;91.79
72380;SHT30;60354;47.798;12.472;2023-12-20T09:16:13;5.21;92.07
72380;SHT30;60354;47.798;12.472;2023-12-20T09:18:41;5.21;91.60
72380;SHT30;60354;47.798;12.472;2023-12-20T09:21:07;5.19;91.65
72380;SHT30;60354;47.798;12.472;2023-12-20T09:23:32;5.21;91.67
72380;SHT30;60354;47.798;12.472;2023-12-20T09:25:58;5.31;92.25
72380;SHT30;60354;47.798;12.472;2023-12-20T09:28:23;5.24;92.06
72380;SHT30;60354;47.798;12.472;2023-12-20T09:30:49;5.19;91.59
72380;SHT30;60354;47.798;12.472;2023-12-20T09:33:14;5.23;91.95
72380;SHT30;60354;47.798;12.472;2023-12-20T09:35:42;5.24;91.62
72380;SHT30;60354;47.798;12.472;2023-12-20T09:38:07;5.21;92.26
72380;SHT30;60354;47.798;12.472;2023-12-20T09:40:34;5.30;92.05
72380;SHT30;60354;47.798;12.472;2023-12-20T09:43:04;5.23;92.27
72380;SHT30;60354;47.798;12.472;2023-12-20T09:45:31;5.23;92.83
72380;SHT30;60354;47.798;12.472;2023-12-20T09:47:57;5.23;92.37
72380;SHT30;60354;47.798;12.472;2023-12-20T09:50:23;5.21;92.50
72380;SHT30;60354;47.798;12.472;2023-12-20T09:52:52;5.17;92.94
72380;SHT30;60354;47.798;12.472;2023-12-20T09:55:19;5.23;91.41
72380;SHT30;60354;47.798;12.472;2023-12-20T09:57:46;5.28;92.20
72380;SHT30;60354;47.798;12.472;2023-12-20T10:00:12;5.27;92.60
72380;SHT30;60354;47.798;12.472;2023-12-20T10:02:44;5.27;91.67
72380;SHT30;60354;47.798;12.472;2023-12-20T10:05:16;5.26;91.54
72380;SHT30;60354;47.798;12.472;2023-12-20T10:07:41;5.21;92.56
72380;SHT30;60354;47.798;12.472;2023-12-20T10:10:07;5.20;91.77
72380;SHT30;60354;47.798;12.472;2023-12-20T10:12:34;5.19;91.93
72380;SHT30;60354;47.798;12.472;2023-12-20T10:14:59;5.17;92.28
72380;SHT30;60354;47.798;12.472;2023-12-20T10:17:27;5.19;93.11
72380;SHT30;60354;47.798;12.472;2023-12-20T10:19:54;5.13;92.01
72380;SHT30;60354;47.798;12.472;2023-12-20T10:22:19;5.17;91.56
72380;SHT30;60354;47.798;12.472;2023-12-20T10:24:46;5.14;92.17
72380;SHT30;60354;47.798;12.472;2023-12-20T10:27:12;5.09;92.65
72380;SHT30;60354;47.798;12.472;2023-12-20T10:29:38;5.07;93.75
72380;SHT30;60354;47.798;12.472;2023-12-20T10:32:27;5.04;93.50
72380;SHT30;60354;47.798;12.472;2023-12-20T10:34:54;5.10;93.47
72380;SHT30;60354;47.798;12.472;2023-12-20T10:37:19;5.07;93.60
72380;SHT30;60354;47.798;12.472;2023-12-20T10:39:52;5.06;93.30
72380;SHT30;60354;47.798;12.472;2023-12-20T10:42:30;5.07;93.21
72380;SHT30;60354;47.798;12.472;2023-12-20T10:44:56;5.13;93.09
72380;SHT30;60354;47.798;12.472;2023-12-20T10:47:22;5.09;93.39
72380;SHT30;60354;47.798;12.472;2023-12-20T10:49:51;5.03;93.73
72380;SHT30;60354;47.798;12.472;2023-12-20T10:52:17;5.04;94.10
72380;SHT30;60354;47.798;12.472;2023-12-20T10:54:43;5.03;94.45
72380;SHT30;60354;47.798;12.472;2023-12-20T10:57:09;5.10;94.33
72380;SHT30;60354;47.798;12.472;2023-12-20T10:59:39;5.06;94.11
72380;SHT30;60354;47.798;12.472;2023-12-20T11:02:05;5.07;94.57
72380;SHT30;60354;47.798;12.472;2023-12-20T11:05:05;5.09;94.17
72380;SHT30;60354;47.798;12.472;2023-12-20T11:07:36;5.10;94.37
72380;SHT30;60354;47.798;12.472;2023-12-20T11:13:17;5.11;94.62
72380;SHT30;60354;47.798;12.472;2023-12-20T11:15:43;5.17;94.26
72380;SHT30;60354;47.798;12.472;2023-12-20T11:18:08;5.23;94.28
72380;SHT30;60354;47.798;12.472;2023-12-20T11:20:38;5.26;93.46
72380;SHT30;60354;47.798;12.472;2023-12-20T11:23:04;5.23;94.35
72380;SHT30;60354;47.798;12.472;2023-12-20T11:25:45;5.26;94.41
72380;SHT30;60354;47.798;12.472;2023-12-20T11:28:11;5.27;94.38
72380;SHT30;60354;47.798;12.472;2023-12-20T11:30:48;5.24;93.06
72380;SHT30;60354;47.798;12.472;2023-12-20T11:33:15;5.21;94.38
72380;SHT30;60354;47.798;12.472;2023-12-20T11:35:41;5.17;94.14
72380;SHT30;60354;47.798;12.472;2023-12-20T11:38:08;5.20;93.64
72380;SHT30;60354;47.798;12.472;2023-12-20T11:40:35;5.17;94.23
72380;SHT30;60354;47.798;12.472;2023-12-20T11:43:00;5.14;94.82
72380;SHT30;60354;47.798;12.472;2023-12-20T11:45:26;5.16;94.51
72380;SHT30;60354;47.798;12.472;2023-12-20T11:47:52;5.16;94.77
72380;SHT30;60354;47.798;12.472;2023-12-20T11:50:22;5.24;94.82
72380;SHT30;60354;47.798;12.472;2023-12-20T11:52:49;5.21;94.64
72380;SHT30;60354;47.798;12.472;2023-12-20T11:55:15;5.27;94.67
72380;SHT30;60354;47.798;12.472;2023-12-20T11:57:42;5.31;94.73
72380;SHT30;60354;47.798;12.472;2023-12-20T12:00:08;5.34;94.73
72380;SHT30;60354;47.798;12.472;2023-12-20T12:02:42;5.44;94.75
72380;SHT30;60354;47.798;12.472;2023-12-20T12:05:08;5.38;94.59
72380;SHT30;60354;47.798;12.472;2023-12-20T12:07:34;5.44;94.34
72380;SHT30;60354;47.798;12.472;2023-12-20T12:10:00;5.51;93.59
72380;SHT30;60354;47.798;12.472;2023-12-20T12:12:26;5.44;93.85
72380;SHT30;60354;47.798;12.472;2023-12-20T12:14:53;5.51;93.66
72380;SHT30;60354;47.798;12.472;2023-12-20T12:17:18;5.48;94.45
72380;SHT30;60354;47.798;12.472;2023-12-20T12:19:44;5.50;94.10
72380;SHT30;60354;47.798;12.472;2023-12-20T12:22:12;5.48;93.77
72380;SHT30;60354;47.798;12.472;2023-12-20T12:24:43;5.44;93.21
72380;SHT30;60354;47.798;12.472;2023-12-20T12:27:09;5.47;93.46
72380;SHT30;60354;47.798;12.472;2023-12-20T12:29:36;5.47;93.56
72380;SHT30;60354;47.798;12.472;2023-12-20T12:32:06;5.52;93.12
72380;SHT30;60354;47.798;12.472;2023-12-20T12:34:35;5.50;92.54
72380;SHT30;60354;47.798;12.472;2023-12-20T12:37:02;5.51;92.44
72380;SHT30;60354;47.798;12.472;2023-12-20T12:39:29;5.42;91.96
72380;SHT30;60354;47.798;12.472;2023-12-20T12:41:55;5.40;93.09
72380;SHT30;60354;47.798;12.472;2023-12-20T12:44:21;5.40;92.76
72380;SHT30;60354;47.798;12.472;2023-12-20T12:46:49;5.38;93.64
72380;SHT30;60354;47.798;12.472;2023-12-20T12:49:22;5.41;93.53
72380;SHT30;60354;47.798;12.472;2023-12-20T12:51:47;5.48;93.55
72380;SHT30;60354;47.798;12.472;2023-12-20T12:54:13;5.48;92.71
72380;SHT30;60354;47.798;12.472;2023-12-20T12:56:41;5.52;91.14
72380;SHT30;60354;47.798;12.472;2023-12-20T12:59:06;5.54;91.62
72380;SHT30;60354;47.798;12.472;2023-12-20T13:01:32;5.51;91.71
72380;SHT30;60354;47.798;12.472;2023-12-20T13:03:57;5.51;90.69
72380;SHT30;60354;47.798;12.472;2023-12-20T13:06:23;5.54;91.41
72380;SHT30;60354;47.798;12.472;2023-12-20T13:08:49;5.61;91.12
72380;SHT30;60354;47.798;12.472;2023-12-20T13:11:15;5.54;91.61
72380;SHT30;60354;47.798;12.472;2023-12-20T13:13:40;5.62;92.34
72380;SHT30;60354;47.798;12.472;2023-12-20T13:16:06;5.56;91.75
72380;SHT30;60354;47.798;12.472;2023-12-20T13:18:31;5.56;91.67
72380;SHT30;60354;47.798;12.472;2023-12-20T13:20:57;5.52;90.82
72380;SHT30;60354;47.798;12.472;2023-12-20T13:23:22;5.50;90.96
72380;SHT30;60354;47.798;12.472;2023-12-20T13:25:48;5.50;90.58
72380;SHT30;60354;47.798;12.472;2023-12-20T13:28:13;5.50;90.91
72380;SHT30;60354;47.798;12.472;2023-12-20T13:30:39;5.51;90.76
72380;SHT30;60354;47.798;12.472;2023-12-20T13:33:05;5.54;90.65
72380;SHT30;60354;47.798;12.472;2023-12-20T13:35:31;5.52;89.60
72380;SHT30;60354;47.798;12.472;2023-12-20T13:37:58;5.50;90.67
72380;SHT30;60354;47.798;12.472;2023-12-20T13:40:24;5.45;91.07
72380;SHT30;60354;47.798;12.472;2023-12-20T13:42:49;5.44;91.53
72380;SHT30;60354;47.798;12.472;2023-12-20T13:45:15;5.41;92.14
72380;SHT30;60354;47.798;12.472;2023-12-20T13:47:41;5.42;91.74
72380;SHT30;60354;47.798;12.472;2023-12-20T13:50:07;5.48;92.12
72380;SHT30;60354;47.798;12.472;2023-12-20T13:52:32;5.50;91.52
72380;SHT30;60354;47.798;12.472;2023-12-20T13:54:58;5.51;91.83
72380;SHT30;60354;47.798;12.472;2023-12-20T13:57:23;5.56;91.94
72380;SHT30;60354;47.798;12.472;2023-12-20T13:59:49;5.55;92.13
72380;SHT30;60354;47.798;12.472;2023-12-20T14:02:14;5.58;92.09
72380;SHT30;60354;47.798;12.472;2023-12-20T14:04:41;5.71;92.37
72380;SHT30;60354;47.798;12.472;2023-12-20T14:07:07;5.89;90.78
72380;SHT30;60354;47.798;12.472;2023-12-20T14:09:33;6.05;90.09
72380;SHT30;60354;47.798;12.472;2023-12-20T14:11:59;6.16;89.28
72380;SHT30;60354;47.798;12.472;2023-12-20T14:14:25;6.23;89.05
72380;SHT30;60354;47.798;12.472;2023-12-20T14:16:50;6.20;88.06
72380;SHT30;60354;47.798;12.472;2023-12-20T14:19:16;6.10;88.07
72380;SHT30;60354;47.798;12.472;2023-12-20T14:21:42;6.05;87.60
72380;SHT30;60354;47.798;12.472;2023-12-20T14:24:07;5.95;89.02
72380;SHT30;60354;47.798;12.472;2023-12-20T14:26:33;5.85;88.85
72380;SHT30;60354;47.798;12.472;2023-12-20T14:28:58;5.86;88.24
72380;SHT30;60354;47.798;12.472;2023-12-20T14:31:24;5.86;88.11
72380;SHT30;60354;47.798;12.472;2023-12-20T14:33:50;5.81;88.37
72380;SHT30;60354;47.798;12.472;2023-12-20T14:36:18;5.82;86.52
72380;SHT30;60354;47.798;12.472;2023-12-20T14:38:45;5.83;86.98
72380;SHT30;60354;47.798;12.472;2023-12-20T14:41:12;5.79;87.43
72380;SHT30;60354;47.798;12.472;2023-12-20T14:43:37;5.78;87.33
72380;SHT30;60354;47.798;12.472;2023-12-20T14:46:03;5.83;86.78
72380;SHT30;60354;47.798;12.472;2023-12-20T14:48:30;5.81;86.91
72380;SHT30;60354;47.798;12.472;2023-12-20T14:50:57;5.72;86.86
72380;SHT30;60354;47.798;12.472;2023-12-20T14:53:24;5.71;85.98
72380;SHT30;60354;47.798;12.472;2023-12-20T14:55:50;5.72;86.26
72380;SHT30;60354;47.798;12.472;2023-12-20T14:58:16;5.71;85.65
72380;SHT30;60354;47.798;12.472;2023-12-20T15:00:42;5.78;84.31
72380;SHT30;60354;47.798;12.472;2023-12-20T15:03:08;5.81;83.75
72380;SHT30;60354;47.798;12.472;2023-12-20T15:05:34;5.85;83.51
72380;SHT30;60354;47.798;12.472;2023-12-20T15:07:59;5.89;83.34
72380;SHT30;60354;47.798;12.472;2023-12-20T15:10:24;5.79;83.74
72380;SHT30;60354;47.798;12.472;2023-12-20T15:12:50;5.81;83.81
72380;SHT30;60354;47.798;12.472;2023-12-20T15:15:15;5.83;83.40
72380;SHT30;60354;47.798;12.472;2023-12-20T15:17:41;5.81;83.73
72380;SHT30;60354;47.798;12.472;2023-12-20T15:20:07;5.73;84.34
72380;SHT30;60354;47.798;12.472;2023-12-20T15:22:35;5.73;85.57
72380;SHT30;60354;47.798;12.472;2023-12-20T15:25:01;5.66;86.86
72380;SHT30;60354;47.798;12.472;2023-12-20T15:27:27;5.42;87.87